createdAt,value
2019-05-06T00:02:27.687Z,9.40
2019-05-06T00:04:57.143Z,9.40
2019-05-06T00:07:26.675Z,9.50
2019-05-06T00:09:56.280Z,9.50
2019-05-06T00:12:25.863Z,9.60
2019-05-06T00:14:55.467Z,9.60
2019-05-06T00:17:25.228Z,9.70
2019-05-06T00:19:57.018Z,9.60
2019-05-06T00:22:25.891Z,9.60
2019-05-06T00:24:57.034Z,9.50
2019-05-06T00:27:31.219Z,9.30
2019-05-06T00:30:00.859Z,9.00
2019-05-06T00:32:30.459Z,9.00
2019-05-06T00:34:59.939Z,9.30
2019-05-06T00:37:29.417Z,9.20
2019-05-06T00:40:01.571Z,9.40
2019-05-06T00:42:36.805Z,9.50
2019-05-06T00:45:08.583Z,9.40
2019-05-06T00:47:38.155Z,9.40
2019-05-06T00:50:09.226Z,9.50
2019-05-06T00:52:39.075Z,9.30
2019-05-06T00:55:08.879Z,9.30
2019-05-06T00:57:44.730Z,9.40
2019-05-06T01:00:14.905Z,9.50
2019-05-06T01:02:44.464Z,9.50
2019-05-06T01:05:14.743Z,9.50
2019-05-06T01:07:44.368Z,9.40
2019-05-06T01:10:15.267Z,9.50
2019-05-06T01:12:46.510Z,9.50
2019-05-06T01:15:18.407Z,9.60
2019-05-06T01:17:48.067Z,9.40
2019-05-06T01:20:17.831Z,9.40
2019-05-06T01:22:47.368Z,9.50
2019-05-06T01:25:16.947Z,9.60
2019-05-06T01:27:46.559Z,9.50
2019-05-06T01:30:16.728Z,9.50
2019-05-06T01:32:46.267Z,9.40
2019-05-06T01:35:15.782Z,9.20
2019-05-06T01:37:47.159Z,9.50
2019-05-06T01:40:18.878Z,9.40
2019-05-06T01:42:49.991Z,9.50
2019-05-06T01:45:19.576Z,9.50
2019-05-06T01:47:49.175Z,9.60
2019-05-06T01:50:20.282Z,9.60
2019-05-06T01:52:49.895Z,9.60
2019-05-06T01:55:19.466Z,9.70
2019-05-06T01:57:48.874Z,9.70
2019-05-06T02:00:18.650Z,9.60
2019-05-06T02:02:48.321Z,9.50
2019-05-06T02:05:18.027Z,9.50
2019-05-06T02:07:47.595Z,9.60
2019-05-06T02:10:17.203Z,9.50
2019-05-06T02:12:46.710Z,9.50
2019-05-06T02:15:16.400Z,9.50
2019-05-06T02:17:45.967Z,9.60
2019-05-06T02:20:15.594Z,9.50
2019-05-06T02:22:53.873Z,9.50
2019-05-06T02:25:24.956Z,9.10
2019-05-06T02:27:54.414Z,9.20
2019-05-06T02:30:36.490Z,9.40
2019-05-06T02:33:24.655Z,9.40
2019-05-06T02:36:06.572Z,9.40
2019-05-06T02:38:46.061Z,9.60
2019-05-06T02:41:06.748Z,9.40
2019-05-06T02:43:36.470Z,9.40
2019-05-06T02:46:06.031Z,9.60
2019-05-06T02:48:49.071Z,9.30
2019-05-06T02:51:19.540Z,9.20
2019-05-06T02:53:49.108Z,9.30
2019-05-06T02:56:18.653Z,9.40
2019-05-06T02:58:48.208Z,9.40
2019-05-06T03:01:17.892Z,9.50
2019-05-06T03:03:47.459Z,9.60
2019-05-06T03:06:17.068Z,9.30
2019-05-06T03:08:46.635Z,9.20
2019-05-06T03:11:17.214Z,9.40
2019-05-06T03:13:46.707Z,9.40
2019-05-06T03:16:16.167Z,9.40
2019-05-06T03:18:45.769Z,9.50
2019-05-06T03:21:24.649Z,9.50
2019-05-06T03:23:55.567Z,9.40
2019-05-06T03:26:25.135Z,9.50
2019-05-06T03:28:54.743Z,9.60
2019-05-06T03:31:26.122Z,9.50
2019-05-06T03:34:21.827Z,9.40
2019-05-06T03:36:32.946Z,9.30
2019-05-06T03:38:57.706Z,9.40
2019-05-06T03:41:27.212Z,9.40
2019-05-06T03:43:56.810Z,9.50
2019-05-06T03:46:44.012Z,9.50
2019-05-06T03:49:13.682Z,9.60
2019-05-06T03:51:43.185Z,9.60
2019-05-06T03:54:14.651Z,9.60
2019-05-06T03:56:44.875Z,9.50
2019-05-06T03:59:16.591Z,9.40
2019-05-06T04:01:46.029Z,9.40
2019-05-06T04:04:15.484Z,9.40
2019-05-06T04:06:45.456Z,9.20
2019-05-06T04:09:14.927Z,9.30
2019-05-06T04:11:45.539Z,9.40
2019-05-06T04:14:17.759Z,9.50
2019-05-06T04:17:03.155Z,9.50
2019-05-06T04:19:36.732Z,9.40
2019-05-06T04:22:12.847Z,9.40
2019-05-06T04:24:48.683Z,9.50
2019-05-06T04:27:36.792Z,9.50
2019-05-06T04:30:06.781Z,9.50
2019-05-06T04:32:36.371Z,9.40
2019-05-06T04:35:06.175Z,9.40
2019-05-06T04:37:35.673Z,9.40
2019-05-06T04:40:08.235Z,9.40
2019-05-06T04:42:38.307Z,9.40
2019-05-06T04:45:08.120Z,9.30
2019-05-06T04:47:37.698Z,9.40
2019-05-06T04:50:08.415Z,9.20
2019-05-06T04:52:38.037Z,9.00
2019-05-06T04:55:08.789Z,8.90
2019-05-06T04:57:38.540Z,9.00
2019-05-06T05:00:08.562Z,8.80
2019-05-06T05:02:38.173Z,8.70
2019-05-06T05:05:07.947Z,9.00
2019-05-06T05:07:37.762Z,9.20
2019-05-06T05:10:12.560Z,9.30
2019-05-06T05:12:52.829Z,9.20
2019-05-06T05:15:41.800Z,9.00
2019-05-06T05:18:13.124Z,8.90
2019-05-06T05:20:46.576Z,9.00
2019-05-06T05:23:13.971Z,9.20
2019-05-06T05:25:43.542Z,9.30
2019-05-06T05:28:13.243Z,9.40
2019-05-06T05:30:43.044Z,9.50
2019-05-06T05:33:12.660Z,9.40
2019-05-06T05:35:43.283Z,9.50
2019-05-06T05:38:13.626Z,9.50
2019-05-06T05:40:43.600Z,9.50
2019-05-06T05:43:26.974Z,9.60
2019-05-06T05:45:56.579Z,9.60
2019-05-06T05:48:45.443Z,9.50
2019-05-06T05:51:15.055Z,9.60
2019-05-06T05:53:44.654Z,9.60
2019-05-06T05:56:14.635Z,9.70
2019-05-06T05:58:44.243Z,9.80
2019-05-06T06:01:14.287Z,9.90
2019-05-06T06:03:43.904Z,9.90
2019-05-06T06:06:13.611Z,9.70
2019-05-06T06:08:43.304Z,9.80
2019-05-06T06:11:20.298Z,9.80
2019-05-06T06:13:52.276Z,9.90
2019-05-06T06:16:32.912Z,9.70
2019-05-06T06:19:12.800Z,9.80
2019-05-06T06:21:46.731Z,9.80
2019-05-06T06:24:23.931Z,9.90
2019-05-06T06:26:53.542Z,10.10
2019-05-06T06:29:23.154Z,10.40
2019-05-06T06:31:54.371Z,10.20
2019-05-06T06:34:42.702Z,10.00
2019-05-06T06:37:28.884Z,10.10
2019-05-06T06:40:02.340Z,10.20
2019-05-06T06:42:33.569Z,10.10
2019-05-06T06:45:03.702Z,9.70
2019-05-06T06:47:33.429Z,9.80
2019-05-06T06:50:03.214Z,10.00
2019-05-06T06:52:32.900Z,10.20
2019-05-06T06:55:02.691Z,10.10
2019-05-06T06:57:34.575Z,10.30
2019-05-06T07:00:09.780Z,10.50
2019-05-06T07:02:47.593Z,10.60
2019-05-06T07:05:27.548Z,11.40
2019-05-06T07:07:52.899Z,10.70
2019-05-06T07:10:39.331Z,10.70
2019-05-06T07:13:08.955Z,10.40
2019-05-06T07:15:39.273Z,10.40
2019-05-06T07:18:08.912Z,10.60
2019-05-06T07:20:40.246Z,10.80
2019-05-06T07:23:26.067Z,12.20
2019-05-06T07:25:55.886Z,11.80
2019-05-06T07:28:25.468Z,11.40
2019-05-06T07:30:55.646Z,11.50
2019-05-06T07:33:25.229Z,11.60
2019-05-06T07:35:54.845Z,11.40
2019-05-06T07:38:24.494Z,11.50
2019-05-06T07:40:58.390Z,11.30
2019-05-06T07:43:33.907Z,11.10
2019-05-06T07:46:23.567Z,11.10
2019-05-06T07:48:52.872Z,11.10
2019-05-06T07:51:23.864Z,11.10
2019-05-06T07:53:53.622Z,11.20
2019-05-06T07:56:23.235Z,11.80
2019-05-06T07:58:54.415Z,11.80
2019-05-06T08:01:26.157Z,11.90
2019-05-06T08:03:55.239Z,11.90
2019-05-06T08:06:24.819Z,11.90
2019-05-06T08:08:54.363Z,12.00
2019-05-06T08:11:26.060Z,11.80
2019-05-06T08:13:55.191Z,11.90
2019-05-06T08:16:26.643Z,12.00
2019-05-06T08:18:56.183Z,12.10
2019-05-06T08:21:30.135Z,12.10
2019-05-06T08:23:59.763Z,12.00
2019-05-06T08:26:29.343Z,12.20
2019-05-06T08:28:58.896Z,12.30
2019-05-06T08:31:28.479Z,13.00
2019-05-06T08:33:58.032Z,12.90
2019-05-06T08:36:34.994Z,12.70
2019-05-06T08:39:07.579Z,12.90
2019-05-06T08:41:37.372Z,12.70
2019-05-06T08:44:07.182Z,12.80
2019-05-06T08:46:36.826Z,13.00
2019-05-06T08:49:06.404Z,13.50
2019-05-06T08:51:53.067Z,13.60
2019-05-06T08:54:27.075Z,13.30
2019-05-06T08:56:56.798Z,13.30
2019-05-06T08:59:26.229Z,13.70
2019-05-06T09:02:05.202Z,13.80
2019-05-06T09:04:35.324Z,13.80
2019-05-06T09:07:05.035Z,14.00
2019-05-06T09:09:34.571Z,14.10
2019-05-06T09:12:04.178Z,14.20
2019-05-06T09:14:33.793Z,14.10
2019-05-06T09:17:03.739Z,14.30
2019-05-06T09:19:33.406Z,14.70
2019-05-06T09:22:03.193Z,14.60
2019-05-06T09:24:33.807Z,14.60
2019-05-06T09:27:12.334Z,14.50
2019-05-06T09:29:43.515Z,14.70
2019-05-06T09:32:14.767Z,14.80
2019-05-06T09:34:45.942Z,14.70
2019-05-06T09:37:19.387Z,14.60
2019-05-06T09:39:48.966Z,14.80
2019-05-06T09:42:18.566Z,15.00
2019-05-06T09:44:50.429Z,15.00
2019-05-06T09:47:24.243Z,14.70
2019-05-06T09:49:53.927Z,14.90
2019-05-06T09:52:24.158Z,14.90
2019-05-06T09:55:06.951Z,15.00
2019-05-06T09:57:54.280Z,15.20
2019-05-06T10:00:24.250Z,15.00
2019-05-06T10:02:54.140Z,15.20
2019-05-06T10:05:23.818Z,15.20
2019-05-06T10:07:53.707Z,15.10
2019-05-06T10:10:23.283Z,15.30
2019-05-06T10:12:53.166Z,15.40
2019-05-06T10:15:23.730Z,15.20
2019-05-06T10:18:08.841Z,15.10
2019-05-06T10:20:42.675Z,15.20
2019-05-06T10:23:12.407Z,15.20
2019-05-06T10:25:43.750Z,15.20
2019-05-06T10:28:18.248Z,15.30
2019-05-06T10:30:47.816Z,15.40
2019-05-06T10:33:19.054Z,15.50
2019-05-06T10:35:48.659Z,15.60
2019-05-06T10:38:24.239Z,15.40
2019-05-06T10:41:04.043Z,15.50
2019-05-06T10:43:33.659Z,15.70
2019-05-06T10:46:04.090Z,15.80
2019-05-06T10:48:33.680Z,15.80
2019-05-06T10:51:04.855Z,15.80
2019-05-06T10:53:34.427Z,15.70
2019-05-06T10:56:05.772Z,15.80
2019-05-06T10:58:35.456Z,15.80
2019-05-06T11:01:07.214Z,16.00
2019-05-06T11:03:36.683Z,15.90
2019-05-06T11:06:06.247Z,15.90
2019-05-06T11:08:36.195Z,15.80
2019-05-06T11:11:15.213Z,16.00
2019-05-06T11:13:36.887Z,16.00
2019-05-06T11:16:06.395Z,16.10
2019-05-06T11:18:35.937Z,16.10
2019-05-06T11:21:05.540Z,16.10
2019-05-06T11:23:35.003Z,15.70
2019-05-06T11:26:04.636Z,15.80
2019-05-06T11:28:45.659Z,16.00
2019-05-06T11:31:33.193Z,16.10
2019-05-06T11:34:07.378Z,16.10
2019-05-06T11:36:38.747Z,16.20
2019-05-06T11:39:08.795Z,16.30
2019-05-06T11:41:38.479Z,16.10
2019-05-06T11:44:09.216Z,16.10
2019-05-06T11:46:38.831Z,16.00
2019-05-06T11:49:09.511Z,15.90
2019-05-06T11:51:39.115Z,16.10
2019-05-06T11:54:17.560Z,16.30
2019-05-06T11:56:48.830Z,16.30
2019-05-06T11:59:12.971Z,16.30
2019-05-06T12:01:47.035Z,16.40
2019-05-06T12:04:16.583Z,16.30
2019-05-06T12:06:46.023Z,16.50
2019-05-06T12:09:17.063Z,16.50
2019-05-06T12:11:46.859Z,16.40
2019-05-06T12:14:16.479Z,16.40
2019-05-06T12:16:47.020Z,16.30
2019-05-06T12:19:16.569Z,16.30
2019-05-06T12:21:46.183Z,16.30
2019-05-06T12:24:15.693Z,16.30
2019-05-06T12:26:45.169Z,16.40
2019-05-06T12:29:15.747Z,16.30
2019-05-06T12:31:46.928Z,16.30
2019-05-06T12:34:16.478Z,16.50
2019-05-06T12:36:47.668Z,16.50
2019-05-06T12:39:20.052Z,16.40
2019-05-06T12:42:03.595Z,16.60
2019-05-06T12:44:34.847Z,16.60
2019-05-06T12:47:14.827Z,16.60
2019-05-06T12:49:44.412Z,16.50
2019-05-06T12:52:14.115Z,16.50
2019-05-06T12:54:43.697Z,16.50
2019-05-06T12:57:13.499Z,16.60
2019-05-06T12:59:43.123Z,16.70
2019-05-06T13:02:13.375Z,16.70
2019-05-06T13:04:55.368Z,16.80
2019-05-06T13:07:15.846Z,16.80
2019-05-06T13:09:45.549Z,16.80
2019-05-06T13:12:17.628Z,16.90
2019-05-06T13:14:47.111Z,16.80
2019-05-06T13:17:18.256Z,17.00
2019-05-06T13:19:47.864Z,16.90
2019-05-06T13:22:19.048Z,16.70
2019-05-06T13:24:48.624Z,16.80
2019-05-06T13:27:19.812Z,16.70
2019-05-06T13:29:49.459Z,16.80
2019-05-06T13:32:20.618Z,16.80
2019-05-06T13:34:52.490Z,16.80
2019-05-06T13:37:22.913Z,16.90
2019-05-06T13:39:53.172Z,16.80
2019-05-06T13:42:24.616Z,16.70
2019-05-06T13:44:54.188Z,16.60
2019-05-06T13:47:33.951Z,16.60
2019-05-06T13:50:05.402Z,16.70
2019-05-06T13:52:37.958Z,16.80
2019-05-06T13:55:07.862Z,16.70
2019-05-06T13:57:39.231Z,16.70
2019-05-06T14:00:09.072Z,16.60
2019-05-06T14:02:53.165Z,16.70
2019-05-06T14:05:23.030Z,16.90
2019-05-06T14:07:53.002Z,16.80
2019-05-06T14:10:23.635Z,16.80
2019-05-06T14:12:53.460Z,16.70
2019-05-06T14:15:23.396Z,16.70
2019-05-06T14:17:53.432Z,16.80
2019-05-06T14:20:23.092Z,16.80
2019-05-06T14:22:52.933Z,16.80
2019-05-06T14:25:26.636Z,16.90
2019-05-06T14:27:57.847Z,16.80
2019-05-06T14:30:33.095Z,16.80
2019-05-06T14:33:03.321Z,17.00
2019-05-06T14:35:33.092Z,16.80
2019-05-06T14:38:03.341Z,16.90
2019-05-06T14:40:34.567Z,16.90
2019-05-06T14:43:05.261Z,16.80
2019-05-06T14:45:34.944Z,16.80
2019-05-06T14:48:04.555Z,16.80
2019-05-06T14:50:45.437Z,16.90
2019-05-06T14:53:06.436Z,16.90
2019-05-06T14:55:37.546Z,17.00
2019-05-06T14:58:07.016Z,17.00
2019-05-06T15:00:36.519Z,16.90
2019-05-06T15:03:06.159Z,16.80
2019-05-06T15:05:36.288Z,16.70
2019-05-06T15:08:06.015Z,16.70
2019-05-06T15:10:35.553Z,16.70
2019-05-06T15:13:05.100Z,16.70
2019-05-06T15:15:35.683Z,16.80
2019-05-06T15:18:05.291Z,17.10
2019-05-06T15:20:34.874Z,16.90
2019-05-06T15:23:04.661Z,17.30
2019-05-06T15:25:34.109Z,17.10
2019-05-06T15:28:03.727Z,16.80
2019-05-06T15:30:52.669Z,16.60
2019-05-06T15:33:35.772Z,16.50
2019-05-06T15:36:09.959Z,16.60
2019-05-06T15:38:39.463Z,16.60
2019-05-06T15:41:09.110Z,16.60
2019-05-06T15:43:38.614Z,16.60
2019-05-06T15:46:08.095Z,16.60
2019-05-06T15:48:37.527Z,16.60
2019-05-06T15:51:07.125Z,16.60
2019-05-06T15:53:36.690Z,16.60
2019-05-06T15:56:06.231Z,16.50
2019-05-06T15:58:35.738Z,16.40
2019-05-06T16:01:05.528Z,16.50
2019-05-06T16:03:35.116Z,16.50
2019-05-06T16:06:04.797Z,16.70
2019-05-06T16:08:34.697Z,16.80
2019-05-06T16:11:04.211Z,16.60
2019-05-06T16:13:33.759Z,16.50
2019-05-06T16:16:06.762Z,16.50
2019-05-06T16:18:34.605Z,16.40
2019-05-06T16:21:04.128Z,16.30
2019-05-06T16:23:38.438Z,16.30
2019-05-06T16:26:07.959Z,16.20
2019-05-06T16:28:37.603Z,16.20
2019-05-06T16:31:07.288Z,16.20
2019-05-06T16:33:36.792Z,16.10
2019-05-06T16:36:06.818Z,16.00
2019-05-06T16:38:37.340Z,16.00
2019-05-06T16:41:12.767Z,16.30
2019-05-06T16:43:38.119Z,16.90
2019-05-06T16:46:07.814Z,17.70
2019-05-06T16:48:37.463Z,17.90
2019-05-06T16:51:06.939Z,16.70
2019-05-06T16:53:36.547Z,16.40
2019-05-06T16:56:07.830Z,16.30
2019-05-06T16:58:54.824Z,16.10
2019-05-06T17:01:24.487Z,16.10
2019-05-06T17:03:58.519Z,16.00
2019-05-06T17:06:29.731Z,16.00
2019-05-06T17:08:59.338Z,15.90
2019-05-06T17:11:31.908Z,16.20
2019-05-06T17:14:00.111Z,16.00
2019-05-06T17:16:29.543Z,15.70
2019-05-06T17:18:59.146Z,15.80
2019-05-06T17:21:28.759Z,15.70
2019-05-06T17:23:58.263Z,15.60
2019-05-06T17:26:27.870Z,15.70
2019-05-06T17:29:02.740Z,15.80
2019-05-06T17:31:34.175Z,15.50
2019-05-06T17:34:05.592Z,15.50
2019-05-06T17:36:37.672Z,15.30
2019-05-06T17:39:10.423Z,15.30
2019-05-06T17:41:45.857Z,15.30
2019-05-06T17:44:12.250Z,15.30
2019-05-06T17:46:59.851Z,15.30
2019-05-06T17:49:31.336Z,15.30
2019-05-06T17:52:05.309Z,15.20
2019-05-06T17:54:34.994Z,15.10
2019-05-06T17:57:04.881Z,15.00
2019-05-06T17:59:37.298Z,14.90
2019-05-06T18:02:10.275Z,14.80
2019-05-06T18:04:42.868Z,15.10
2019-05-06T18:07:12.275Z,14.90
2019-05-06T18:09:42.595Z,14.80
2019-05-06T18:12:13.982Z,14.70
2019-05-06T18:14:43.746Z,14.50
2019-05-06T18:17:13.251Z,14.40
2019-05-06T18:19:42.679Z,14.30
2019-05-06T18:22:13.182Z,14.20
2019-05-06T18:24:42.819Z,14.10
2019-05-06T18:27:13.070Z,14.10
2019-05-06T18:29:42.835Z,13.90
2019-05-06T18:32:13.311Z,13.80
2019-05-06T18:34:42.917Z,15.30
2019-05-06T18:37:12.882Z,14.80
2019-05-06T18:39:42.671Z,13.90
2019-05-06T18:42:19.621Z,13.40
2019-05-06T18:44:43.403Z,13.50
2019-05-06T18:47:12.966Z,13.40
2019-05-06T18:49:42.799Z,13.30
2019-05-06T18:52:13.518Z,13.30
2019-05-06T18:54:45.476Z,13.30
2019-05-06T18:57:16.918Z,13.50
2019-05-06T18:59:46.531Z,13.40
2019-05-06T19:02:16.139Z,13.70
2019-05-06T19:04:53.068Z,13.80
2019-05-06T19:07:22.648Z,13.50
2019-05-06T19:09:59.625Z,13.30
2019-05-06T19:12:36.787Z,13.30
2019-05-06T19:15:03.378Z,13.20
2019-05-06T19:17:33.603Z,13.10
2019-05-06T19:20:06.822Z,13.10
2019-05-06T19:22:36.439Z,13.10
2019-05-06T19:25:07.098Z,13.10
2019-05-06T19:27:37.442Z,13.00
2019-05-06T19:30:08.447Z,13.20
2019-05-06T19:32:38.136Z,13.20
2019-05-06T19:35:07.886Z,13.10
2019-05-06T19:37:37.546Z,13.10
2019-05-06T19:40:07.192Z,13.10
2019-05-06T19:42:47.106Z,12.90
2019-05-06T19:45:08.889Z,12.90
2019-05-06T19:47:38.465Z,13.30
2019-05-06T19:50:08.214Z,12.90
2019-05-06T19:52:37.865Z,12.90
2019-05-06T19:55:08.113Z,12.90
2019-05-06T19:57:37.770Z,12.80
2019-05-06T20:00:07.518Z,12.60
2019-05-06T20:02:37.175Z,12.70
2019-05-06T20:05:24.142Z,12.60
2019-05-06T20:07:55.432Z,12.60
2019-05-06T20:10:44.534Z,12.60
2019-05-06T20:13:14.175Z,12.60
2019-05-06T20:15:43.790Z,12.50
2019-05-06T20:18:13.459Z,12.50
2019-05-06T20:20:43.001Z,12.60
2019-05-06T20:23:12.823Z,12.40
2019-05-06T20:25:44.884Z,12.30
2019-05-06T20:28:15.640Z,12.30
2019-05-06T20:30:45.302Z,12.30
2019-05-06T20:33:14.998Z,12.00
2019-05-06T20:35:44.635Z,12.00
2019-05-06T20:38:14.303Z,12.10
2019-05-06T20:40:43.921Z,12.20
2019-05-06T20:43:19.649Z,12.20
2019-05-06T20:45:45.326Z,12.40
2019-05-06T20:48:14.987Z,12.20
2019-05-06T20:50:44.603Z,12.00
2019-05-06T20:53:14.212Z,12.00
2019-05-06T20:55:43.879Z,11.80
2019-05-06T20:58:13.437Z,12.10
2019-05-06T21:00:43.244Z,12.00
2019-05-06T21:03:12.984Z,12.00
2019-05-06T21:05:43.485Z,12.00
2019-05-06T21:08:14.188Z,12.00
2019-05-06T21:10:44.030Z,12.00
2019-05-06T21:13:21.997Z,12.10
2019-05-06T21:15:44.968Z,11.90
2019-05-06T21:18:14.530Z,11.80
2019-05-06T21:20:44.173Z,11.80
2019-05-06T21:23:13.812Z,12.00
2019-05-06T21:25:43.429Z,12.00
2019-05-06T21:28:13.003Z,12.00
2019-05-06T21:30:43.000Z,12.10
2019-05-06T21:33:12.656Z,12.20
2019-05-06T21:35:42.516Z,12.20
2019-05-06T21:38:13.023Z,12.00
2019-05-06T21:40:43.395Z,12.10
2019-05-06T21:43:13.639Z,12.00
2019-05-06T21:45:43.527Z,11.70
2019-05-06T21:48:16.574Z,11.60
2019-05-06T21:50:46.558Z,11.50
2019-05-06T21:53:16.087Z,11.50
2019-05-06T21:55:45.559Z,11.50
2019-05-06T21:58:15.071Z,11.60
2019-05-06T22:00:49.315Z,11.70
2019-05-06T22:03:18.987Z,11.60
2019-05-06T22:05:48.684Z,11.40
2019-05-06T22:08:18.254Z,11.20
2019-05-06T22:10:47.854Z,11.10
2019-05-06T22:13:17.411Z,11.00
2019-05-06T22:15:46.952Z,11.10
2019-05-06T22:18:16.550Z,11.10
2019-05-06T22:21:04.699Z,11.00
2019-05-06T22:23:52.183Z,11.10
2019-05-06T22:26:23.286Z,11.30
2019-05-06T22:28:54.129Z,11.40
2019-05-06T22:31:24.667Z,11.50
2019-05-06T22:33:54.375Z,11.40
2019-05-06T22:36:23.953Z,11.30
2019-05-06T22:38:53.496Z,11.30
2019-05-06T22:41:25.211Z,11.40
2019-05-06T22:43:54.231Z,11.20
2019-05-06T22:46:24.839Z,11.30
2019-05-06T22:48:55.271Z,11.00
2019-05-06T22:51:24.822Z,11.00
2019-05-06T22:53:54.331Z,10.90
2019-05-06T22:56:23.782Z,11.00
2019-05-06T22:58:53.390Z,11.10
2019-05-06T23:01:27.091Z,11.10
2019-05-06T23:03:56.623Z,11.30
2019-05-06T23:06:26.226Z,11.30
2019-05-06T23:08:55.767Z,11.30
2019-05-06T23:11:25.266Z,11.40
2019-05-06T23:13:54.866Z,11.20
2019-05-06T23:16:24.422Z,11.20
2019-05-06T23:18:54.057Z,11.20
2019-05-06T23:21:24.538Z,11.10
2019-05-06T23:23:54.685Z,11.20
2019-05-06T23:26:24.547Z,11.20
2019-05-06T23:28:54.060Z,11.30
2019-05-06T23:31:24.494Z,11.00
2019-05-06T23:33:54.158Z,11.00
2019-05-06T23:36:23.754Z,10.90
2019-05-06T23:39:32.294Z,10.90
2019-05-06T23:42:37.700Z,11.00
2019-05-06T23:45:42.960Z,11.00
2019-05-06T23:48:49.183Z,10.90
2019-05-06T23:51:54.716Z,10.90
2019-05-06T23:55:00.419Z,10.80
2019-05-06T23:57:28.775Z,10.80
2019-05-06T23:59:58.247Z,10.90
